Time;durP1;ratioP1;P1;durP2;ratioP2;P2;SDS_P1;SDS_P2;PMS_P1;PMS_P2;Temp;Humidity;BMP_temperature;BMP_pressure;BME280_temperature;BME280_humidity;BME280_pressure;Samples;Min_cycle;Max_cycle;Signal;HPM_P1;HPM_P2
2023/06/07 00:00:05;;;;;;;18.77;16.98;;;;;;;-141.84;90.07;20533.34;5092535;28;20205;-58
2023/06/07 00:02:34;;;;;;;18.90;17.27;;;;;;;-141.84;89.29;20519.13;5079945;28;20197;-58
2023/06/07 00:05:13;;;;;;;20.10;18.30;;;;;;;-141.84;89.35;20535.41;5092199;28;20200;-58
2023/06/07 00:07:42;;;;;;;18.67;16.98;;;;;;;-141.84;89.43;20508.97;5092946;28;20192;-58
2023/06/07 00:10:11;;;;;;;19.63;17.83;;;;;;;-141.84;90.42;20545.56;5092853;28;20695;-58
2023/06/07 00:12:41;;;;;;;20.00;18.20;;;;;;;-141.84;91.12;20529.28;5092687;28;20610;-57
2023/06/07 00:15:11;;;;;;;19.13;17.42;;;;;;;-141.84;91.52;20492.72;5093111;28;20236;-58
2023/06/07 00:17:40;;;;;;;18.80;17.20;;;;;;;-141.84;92.08;20460.19;5092814;28;20192;-57
2023/06/07 00:20:12;;;;;;;18.83;17.13;;;;;;;-141.84;92.58;20452.06;5092275;28;20664;-57
2023/06/07 00:22:42;;;;;;;20.02;18.15;;;;;;;-141.84;93.20;20464.25;5092571;28;20242;-59
2023/06/07 00:25:10;;;;;;;18.58;16.85;;;;;;;-141.84;91.59;20508.97;5092462;28;20296;-57
2023/06/07 00:27:39;;;;;;;19.42;17.67;;;;;;;-141.84;89.68;20551.66;5092531;28;20333;-56
2023/06/07 00:30:11;;;;;;;19.02;17.30;;;;;;;-141.84;89.91;20549.63;5072764;28;20223;-58
2023/06/07 00:32:39;;;;;;;18.45;16.85;;;;;;;-141.84;90.53;20511.00;5087433;28;20200;-57
2023/06/07 00:35:09;;;;;;;18.27;16.77;;;;;;;-141.84;91.33;20529.28;5091937;28;20215;-59
2023/06/07 00:37:37;;;;;;;18.55;16.95;;;;;;;-141.84;91.87;20492.72;5076331;28;20200;-57
2023/06/07 00:40:07;;;;;;;18.63;17.05;;;;;;;-141.84;92.79;20478.47;5092353;28;20260;-59
2023/06/07 00:42:36;;;;;;;18.77;17.17;;;;;;;-141.84;93.56;20452.06;5092138;28;20205;-58
2023/06/07 00:45:05;;;;;;;18.88;17.27;;;;;;;-141.84;93.81;20462.22;5088559;28;20300;-58
2023/06/07 00:47:38;;;;;;;18.58;16.88;;;;;;;-141.84;94.17;20441.88;5036345;28;20292;-59
2023/06/07 00:50:08;;;;;;;19.33;17.63;;;;;;;-141.84;94.42;20431.72;5071491;28;20731;-59
2023/06/07 00:52:37;;;;;;;19.60;17.88;;;;;;;-141.84;94.75;20445.94;5074962;28;20664;-58
2023/06/07 00:55:08;;;;;;;19.25;17.60;;;;;;;-141.84;94.81;20431.72;5091817;28;20675;-58
2023/06/07 00:57:38;;;;;;;19.38;17.67;;;;;;;-141.84;94.89;20411.41;5092291;28;20227;-58
2023/06/07 01:00:09;;;;;;;19.58;17.77;;;;;;;-141.84;95.00;20423.59;5091981;28;20191;-57
2023/06/07 01:02:39;;;;;;;20.50;18.35;;;;;;;-141.84;94.99;20423.59;5082531;28;20541;-58
2023/06/07 01:05:08;;;;;;;20.45;18.52;;;;;;;-141.84;94.72;20403.25;5071803;28;20231;-58
2023/06/07 01:07:37;;;;;;;19.05;17.17;;;;;;;-141.84;94.41;20437.81;5091668;28;20626;-59
2023/06/07 01:10:08;;;;;;;20.48;18.50;;;;;;;-141.84;93.89;20464.25;5091926;28;20299;-58
2023/06/07 01:12:37;;;;;;;18.88;17.30;;;;;;;-141.84;93.56;20462.22;5091104;28;20258;-57
2023/06/07 01:15:07;;;;;;;19.40;17.73;;;;;;;-141.84;93.61;20433.75;5091873;28;20206;-59
2023/06/07 01:17:37;;;;;;;19.92;18.13;;;;;;;-141.84;93.60;20427.66;5091321;28;20711;-59
2023/06/07 01:20:11;;;;;;;19.85;18.15;;;;;;;-141.84;93.53;20466.28;5091570;28;20180;-58
2023/06/07 01:22:43;;;;;;;18.27;16.58;;;;;;;-141.84;93.68;20447.97;5091467;28;20181;-60
2023/06/07 01:25:14;;;;;;;18.85;17.25;;;;;;;-141.84;93.94;20437.81;5091722;28;20198;-59
2023/06/07 01:27:46;;;;;;;19.70;17.88;;;;;;;-141.84;94.10;20421.56;5091566;28;20614;-58
2023/06/07 01:30:15;;;;;;;20.33;18.52;;;;;;;-141.84;94.39;20447.97;5091295;28;20203;-60
2023/06/07 01:32:45;;;;;;;20.05;18.15;;;;;;;-141.84;94.45;20403.25;5090937;28;20204;-58
2023/06/07 01:35:14;;;;;;;19.67;17.88;;;;;;;-141.84;94.60;20407.34;5089945;28;20745;-59
2023/06/07 01:37:44;;;;;;;18.92;17.17;;;;;;;-141.84;94.38;20419.53;5070823;28;20669;-58
2023/06/07 01:40:15;;;;;;;19.23;17.42;;;;;;;-141.84;94.69;20415.47;5071097;28;20213;-58
2023/06/07 01:42:45;;;;;;;19.83;18.02;;;;;;;-141.84;94.07;20435.78;5070635;28;20203;-58
2023/06/07 01:45:14;;;;;;;19.33;17.52;;;;;;;-141.84;94.08;20425.63;5070915;28;20204;-59
2023/06/07 01:47:43;;;;;;;19.65;17.90;;;;;;;-141.84;94.46;20429.69;5070696;28;20209;-59
2023/06/07 01:50:11;;;;;;;19.17;17.23;;;;;;;-141.84;94.79;20403.25;5085031;28;20314;-58
2023/06/07 01:52:40;;;;;;;20.35;18.55;;;;;;;-141.84;95.08;20423.59;5091271;28;20231;-58
2023/06/07 01:55:09;;;;;;;20.33;18.48;;;;;;;-141.84;94.99;20411.41;5090856;28;20295;-58
2023/06/07 01:57:51;;;;;;;21.27;19.30;;;;;;;-141.84;94.82;20439.84;5090902;28;20199;-59
2023/06/07 02:00:27;;;;;;;20.10;18.33;;;;;;;-141.84;95.26;20389.03;5091056;28;20176;-59
2023/06/07 02:02:59;;;;;;;20.55;18.75;;;;;;;-141.84;94.88;20384.97;5079068;28;20208;-59
2023/06/07 02:05:33;;;;;;;21.88;19.80;;;;;;;-141.84;94.42;20415.47;5074151;28;20196;-59
2023/06/07 02:08:09;;;;;;;19.48;17.88;;;;;;;-141.84;94.32;20419.53;5090684;28;20180;-57
2023/06/07 02:10:40;;;;;;;20.98;19.23;;;;;;;-141.84;94.37;20384.97;5091277;28;20263;-59
2023/06/07 02:13:11;;;;;;;20.73;18.92;;;;;;;-141.84;94.32;20443.91;5091088;28;20184;-59
2023/06/07 02:15:40;;;;;;;20.52;18.73;;;;;;;-141.84;93.77;20433.75;5090752;28;20210;-59
2023/06/07 02:18:11;;;;;;;21.38;19.55;;;;;;;-141.84;93.78;20397.16;5090531;28;20210;-58
2023/06/07 02:20:40;;;;;;;19.80;18.10;;;;;;;-141.84;94.42;20384.97;5090611;28;20625;-58
2023/06/07 02:23:08;;;;;;;19.30;17.50;;;;;;;-141.84;94.90;20370.75;5091490;28;20225;-58
2023/06/07 02:25:37;;;;;;;20.40;18.60;;;;;;;-141.84;95.37;20382.94;5095068;28;20230;-60
2023/06/07 02:28:05;;;;;;;20.40;18.58;;;;;;;-141.84;95.77;20374.81;5094848;28;20235;-60
2023/06/07 02:30:35;;;;;;;21.27;19.33;;;;;;;-141.84;96.08;20332.13;5094456;28;20204;-58
2023/06/07 02:33:05;;;;;;;20.77;18.80;;;;;;;-141.84;96.52;20326.03;5094613;28;20251;-59
2023/06/07 02:35:34;;;;;;;21.50;19.60;;;;;;;-141.84;96.53;20291.47;5090798;28;20251;-57
2023/06/07 02:38:03;;;;;;;20.85;18.95;;;;;;;-141.84;96.30;20370.75;5081721;28;20203;-58
2023/06/07 02:40:31;;;;;;;20.38;18.48;;;;;;;-141.84;95.95;20334.16;5094793;28;20300;-58
2023/06/07 02:43:00;;;;;;;20.90;19.02;;;;;;;-141.84;95.67;20348.38;5094718;28;20203;-58
2023/06/07 02:45:28;;;;;;;21.33;19.42;;;;;;;-141.84;95.72;20350.41;5094583;28;20208;-58
2023/06/07 02:47:58;;;;;;;20.58;18.77;;;;;;;-141.84;95.67;20350.41;5094714;28;20290;-58
2023/06/07 02:50:27;;;;;;;19.90;18.15;;;;;;;-141.84;95.64;20328.06;5094503;28;20228;-58
2023/06/07 02:52:55;;;;;;;20.75;18.95;;;;;;;-141.84;95.71;20350.41;5094160;28;20295;-58
2023/06/07 02:55:24;;;;;;;20.00;18.20;;;;;;;-141.84;95.64;20340.25;5094575;28;20223;-58
2023/06/07 02:57:52;;;;;;;21.10;19.20;;;;;;;-141.84;95.70;20319.94;5094333;28;20207;-59
2023/06/07 03:00:21;;;;;;;20.48;18.52;;;;;;;-141.84;96.09;20321.97;5094273;28;20200;-58
2023/06/07 03:02:49;;;;;;;21.48;19.58;;;;;;;-141.84;95.76;20360.59;5077330;28;20279;-59
2023/06/07 03:05:19;;;;;;;21.60;19.70;;;;;;;-141.84;95.43;20387.00;5076008;28;20201;-58
2023/06/07 03:07:50;;;;;;;21.98;19.85;;;;;;;-141.84;94.76;20344.31;5093918;28;20196;-58
2023/06/07 03:10:19;;;;;;;21.25;19.25;;;;;;;-141.84;94.90;20370.75;5094492;28;20241;-57
2023/06/07 03:12:47;;;;;;;20.42;18.52;;;;;;;-141.84;94.88;20346.34;5094034;28;20270;-59
2023/06/07 03:15:16;;;;;;;21.50;19.50;;;;;;;-141.84;95.16;20332.13;5093564;28;20676;-59
2023/06/07 03:17:44;;;;;;;21.73;19.83;;;;;;;-141.84;94.94;20360.59;5093589;28;20303;-58
2023/06/07 03:20:13;;;;;;;20.25;18.40;;;;;;;-141.84;94.51;20370.75;5093956;28;20200;-58
2023/06/07 03:22:44;;;;;;;19.85;18.05;;;;;;;-141.84;94.40;20397.16;5093858;28;20640;-59
2023/06/07 03:25:13;;;;;;;20.90;19.00;;;;;;;-141.84;94.40;20376.84;5094124;28;20212;-58
2023/06/07 03:27:41;;;;;;;19.90;18.20;;;;;;;-141.84;94.38;20360.59;5093370;28;20578;-57
2023/06/07 03:30:11;;;;;;;21.73;19.58;;;;;;;-141.84;94.10;20397.16;5093808;28;20200;-59
2023/06/07 03:32:40;;;;;;;19.70;18.00;;;;;;;-141.84;93.76;20354.47;5093665;28;20266;-59
2023/06/07 03:35:09;;;;;;;19.88;18.15;;;;;;;-141.84;93.84;20380.91;5078552;28;20205;-59
2023/06/07 03:37:37;;;;;;;19.17;17.42;;;;;;;-141.84;94.06;20362.63;5093408;28;20725;-58
2023/06/07 03:40:09;;;;;;;20.67;18.77;;;;;;;-141.84;93.97;20378.88;5093558;28;20218;-57
2023/06/07 03:42:38;;;;;;;20.95;19.08;;;;;;;-141.84;93.35;20387.00;5093388;28;20672;-59
2023/06/07 03:45:07;;;;;;;20.42;18.73;;;;;;;-141.84;93.13;20352.44;5093163;28;20212;-58
2023/06/07 03:47:37;;;;;;;20.17;18.38;;;;;;;-141.84;93.29;20382.94;5093495;28;20265;-58
2023/06/07 03:50:06;;;;;;;19.77;18.08;;;;;;;-141.84;93.07;20389.03;5093536;28;20691;-58
2023/06/07 03:52:35;;;;;;;20.42;18.52;;;;;;;-141.84;92.53;20397.16;5093598;28;20310;-58
2023/06/07 03:55:04;;;;;;;20.25;18.52;;;;;;;-141.84;92.10;20445.94;5093321;28;20204;-58
2023/06/07 03:57:34;;;;;;;20.30;18.50;;;;;;;-141.84;91.44;20423.59;5093386;28;20204;-59
2023/06/07 04:00:06;;;;;;;19.35;17.65;;;;;;;-141.84;91.25;20415.47;5092699;28;20291;-58
2023/06/07 04:02:35;;;;;;;20.67;18.75;;;;;;;-141.84;91.48;20439.84;5084286;28;20212;-58
2023/06/07 04:05:04;;;;;;;18.55;16.95;;;;;;;-141.84;90.98;20441.88;5072872;28;20200;-58
2023/06/07 04:07:33;;;;;;;17.23;15.75;;;;;;;-141.84;90.82;20460.19;5087349;28;20636;-58
2023/06/07 04:10:01;;;;;;;18.45;16.77;;;;;;;-141.84;89.64;20447.97;5093001;28;20238;-58
2023/06/07 04:12:30;;;;;;;18.45;16.85;;;;;;;-141.84;88.82;20462.22;5093137;28;20254;-57
2023/06/07 04:15:00;;;;;;;18.92;17.33;;;;;;;-141.84;87.58;20517.09;5092605;28;20306;-59
2023/06/07 04:17:29;;;;;;;17.38;15.88;;;;;;;-141.84;87.07;20504.91;5093057;28;20232;-59
2023/06/07 04:19:58;;;;;;;17.38;15.77;;;;;;;-141.84;86.04;20525.22;5092556;28;20196;-59
2023/06/07 04:22:26;;;;;;;16.20;14.85;;;;;;;-141.84;86.13;20557.75;5090151;28;20227;-57
2023/06/07 04:24:57;;;;;;;17.25;15.75;;;;;;;-141.84;84.42;20545.56;5072252;28;20197;-58
2023/06/07 04:27:29;;;;;;;15.80;14.27;;;;;;;-141.84;84.28;20574.00;5072559;28;20295;-59
2023/06/07 04:30:01;;;;;;;17.02;15.52;;;;;;;-141.84;84.05;20602.47;5072153;28;20280;-58
2023/06/07 04:32:33;;;;;;;16.45;15.05;;;;;;;-141.84;83.43;20635.00;5086152;28;20218;-59
2023/06/07 04:35:02;;;;;;;16.52;14.95;;;;;;;-141.84;81.16;20659.38;5092408;28;20180;-58
2023/06/07 04:37:31;;;;;;;16.63;15.02;;;;;;;-141.84;80.31;20695.97;5074763;28;20283;-59
2023/06/07 04:39:59;;;;;;;13.82;12.60;;;;;;;-141.84;80.01;20732.56;5072946;28;20508;-59
2023/06/07 04:42:28;;;;;;;15.20;13.77;;;;;;;-141.84;78.13;20767.13;5092355;28;20249;-58
2023/06/07 04:45:00;;;;;;;16.92;15.20;;;;;;;-141.84;78.19;20769.16;5091842;28;20688;-58
2023/06/07 04:47:30;;;;;;;14.90;13.60;;;;;;;-141.84;77.18;20836.25;5092080;28;20188;-58
2023/06/07 04:49:59;;;;;;;13.48;12.23;;;;;;;-141.84;75.60;20917.56;5092195;28;20598;-60
2023/06/07 04:52:28;;;;;;;14.35;13.15;;;;;;;-141.84;74.08;20937.91;5092280;28;20240;-59
2023/06/07 04:54:59;;;;;;;13.15;12.05;;;;;;;-141.84;72.14;20990.75;5092111;28;20202;-59
2023/06/07 04:57:27;;;;;;;14.40;13.00;;;;;;;-141.84;69.46;21051.75;5092524;28;20203;-59
2023/06/07 04:59:56;;;;;;;13.13;11.82;;;;;;;-141.84;70.03;21053.78;5091827;28;20295;-59
2023/06/07 05:02:25;;;;;;;13.68;12.35;;;;;;;-141.84;70.08;21021.25;5084365;28;20745;-58
2023/06/07 05:04:57;;;;;;;13.85;12.48;;;;;;;-141.84;70.36;21021.25;5072499;28;20197;-59
2023/06/07 05:07:26;;;;;;;14.07;12.70;;;;;;;-141.84;70.24;20966.34;5092042;28;20184;-58
2023/06/07 05:09:55;;;;;;;13.50;12.20;;;;;;;-141.84;70.80;20984.66;5072430;28;20716;-58
2023/06/07 05:12:24;;;;;;;11.82;10.77;;;;;;;-141.84;71.77;20968.38;5072139;28;20224;-59
2023/06/07 05:14:52;;;;;;;13.43;12.43;;;;;;;-141.84;72.12;20925.69;5088642;28;20286;-58
2023/06/07 05:17:21;;;;;;;13.73;12.52;;;;;;;-141.84;71.97;20919.59;5091661;28;20201;-58
2023/06/07 05:19:49;;;;;;;13.95;12.55;;;;;;;-141.84;72.94;20897.25;5092135;28;20720;-58
2023/06/07 05:22:19;;;;;;;33.92;30.73;;;;;;;-141.84;73.16;20950.09;5092801;28;20231;-59
2023/06/07 05:24:48;;;;;;;15.38;14.07;;;;;;;-141.84;71.76;20921.63;5091990;28;20287;-59
2023/06/07 05:27:17;;;;;;;14.82;13.45;;;;;;;-141.84;72.66;20923.66;5091745;28;20299;-58
2023/06/07 05:29:45;;;;;;;13.88;12.25;;;;;;;-141.84;73.33;20887.06;5091150;28;20722;-58
2023/06/07 05:32:14;;;;;;;13.82;12.63;;;;;;;-141.84;71.70;20923.66;5091488;28;20212;-59
2023/06/07 05:34:45;;;;;;;13.38;12.13;;;;;;;-141.84;71.59;20948.06;5090925;28;20267;-58
2023/06/07 05:37:14;;;;;;;12.70;11.68;;;;;;;-141.84;72.41;20968.38;5073532;28;20214;-59
2023/06/07 05:39:45;;;;;;;12.93;11.82;;;;;;;-141.84;72.34;20909.44;5070970;28;20743;-59
2023/06/07 05:42:14;;;;;;;14.75;13.48;;;;;;;-141.84;69.94;20976.53;5073831;28;20199;-59
2023/06/07 05:44:45;;;;;;;13.13;12.00;;;;;;;-141.84;69.73;20992.78;5070928;28;20220;-59
2023/06/07 05:47:13;;;;;;;13.90;12.55;;;;;;;-141.84;70.38;20956.19;5070822;28;20188;-59
2023/06/07 05:49:42;;;;;;;14.07;12.77;;;;;;;-141.84;69.52;21009.03;5078999;28;20583;-59
2023/06/07 05:52:11;;;;;;;12.90;11.70;;;;;;;-141.84;70.61;20956.19;5080677;28;20201;-59
2023/06/07 05:54:40;;;;;;;12.77;11.73;;;;;;;-141.84;71.32;20941.97;5079357;28;20300;-58
2023/06/07 05:57:10;;;;;;;13.75;12.57;;;;;;;-141.84;71.59;20952.13;5080590;28;20196;-58
2023/06/07 05:59:39;;;;;;;14.85;13.65;;;;;;;-141.84;69.75;20984.66;5080923;28;20675;-59
2023/06/07 06:02:08;;;;;;;14.00;12.75;;;;;;;-141.84;70.52;20972.47;5080653;28;20290;-72
2023/06/07 06:04:36;;;;;;;15.10;13.70;;;;;;;-141.84;70.04;20944.00;5081355;28;20188;-72
2023/06/07 06:07:05;;;;;;;13.82;12.73;;;;;;;-141.84;69.35;20968.38;5081100;28;20199;-72
2023/06/07 06:09:34;;;;;;;14.20;12.98;;;;;;;-141.84;69.02;20998.88;5079911;28;20251;-72
2023/06/07 06:12:02;;;;;;;13.50;12.45;;;;;;;-141.84;69.79;20960.25;5073005;28;20634;-72
2023/06/07 06:14:32;;;;;;;13.95;12.65;;;;;;;-141.84;70.22;20954.16;5070611;28;20274;-71
2023/06/07 06:17:01;;;;;;;14.35;13.13;;;;;;;-141.84;70.15;20935.88;5089966;28;20249;-73
2023/06/07 06:19:30;;;;;;;15.20;13.77;;;;;;;-141.84;70.31;20923.66;5076594;28;20595;-71
2023/06/07 06:21:58;;;;;;;13.48;12.27;;;;;;;-141.84;71.19;20883.00;5090582;28;20235;-72
2023/06/07 06:24:27;;;;;;;15.23;13.77;;;;;;;-141.84;71.15;20885.03;5079815;28;20224;-71
2023/06/07 06:26:56;;;;;;;15.05;13.65;;;;;;;-141.84;71.97;20885.03;5084174;28;20219;-71
2023/06/07 06:29:24;;;;;;;14.82;13.55;;;;;;;-141.84;71.90;20858.59;5088706;28;20274;-72
2023/06/07 06:31:54;;;;;;;15.20;13.80;;;;;;;-141.84;71.22;20880.97;5088436;28;20199;-71
2023/06/07 06:34:24;;;;;;;14.95;13.73;;;;;;;-141.84;71.97;20832.19;5085488;28;20244;-67
2023/06/07 06:36:52;;;;;;;14.73;13.43;;;;;;;-141.84;73.11;20850.47;5078925;28;20295;-69
2023/06/07 06:39:21;;;;;;;13.88;12.70;;;;;;;-141.84;72.63;20862.69;5078206;28;20869;-69
2023/06/07 06:41:49;;;;;;;14.15;12.95;;;;;;;-141.84;73.27;20803.72;5081965;28;20292;-70
2023/06/07 06:44:18;;;;;;;14.88;13.60;;;;;;;-141.84;73.34;20805.75;5075703;28;20633;-70
2023/06/07 06:46:46;;;;;;;15.15;13.75;;;;;;;-141.84;72.40;20883.00;5073492;28;20224;-70
2023/06/07 06:49:16;;;;;;;15.02;13.63;;;;;;;-141.84;72.83;20834.22;5084426;28;20207;-70
2023/06/07 06:51:45;;;;;;;16.20;14.80;;;;;;;-141.84;71.66;20878.94;5050230;28;20197;-70
2023/06/07 06:54:16;;;;;;;14.68;13.40;;;;;;;-141.84;72.16;20856.56;5080056;28;20692;-70
2023/06/07 06:56:45;;;;;;;15.57;14.00;;;;;;;-141.84;71.94;20858.59;5081564;28;20634;-70
2023/06/07 06:59:13;;;;;;;16.38;14.77;;;;;;;-141.84;71.38;20872.84;5070565;28;20201;-70
2023/06/07 07:01:46;;;;;;;15.35;14.05;;;;;;;-141.84;72.30;20856.56;5042292;28;20228;-70
2023/06/07 07:04:17;;;;;;;13.60;12.40;;;;;;;-141.84;72.71;20870.81;5080390;28;20195;-69
2023/06/07 07:06:46;;;;;;;14.48;13.23;;;;;;;-141.84;73.40;20822.03;5078710;28;20192;-69
2023/06/07 07:09:14;;;;;;;16.08;14.45;;;;;;;-141.84;72.05;20866.75;5076383;28;20299;-70
2023/06/07 07:11:43;;;;;;;14.45;13.05;;;;;;;-141.84;71.32;20935.88;5082801;28;20314;-71
2023/06/07 07:14:11;;;;;;;12.85;11.75;;;;;;;-141.84;70.55;20988.72;5083741;28;20334;-70
2023/06/07 07:16:40;;;;;;;13.25;12.15;;;;;;;-141.84;68.45;21094.44;5087163;28;20290;-69
2023/06/07 07:19:09;;;;;;;15.10;13.70;;;;;;;-141.84;66.16;21259.13;5079444;28;20200;-69
2023/06/07 07:21:38;;;;;;;13.23;12.10;;;;;;;-141.84;64.99;21326.22;5086652;28;20226;-69
2023/06/07 07:24:08;;;;;;;13.82;12.63;;;;;;;-141.84;62.35;21490.91;5086091;28;20222;-68
2023/06/07 07:26:39;;;;;;;13.20;12.00;;;;;;;-141.84;61.64;21511.22;5081344;28;21081;-70
2023/06/07 07:29:07;;;;;;;12.43;11.32;;;;;;;-141.84;60.49;21545.78;5083570;28;20313;-69
2023/06/07 07:31:36;;;;;;;13.20;11.85;;;;;;;-141.84;57.15;21604.75;5082678;28;20193;-70
2023/06/07 07:34:05;;;;;;;11.40;10.38;;;;;;;-141.84;57.85;21600.69;5076197;28;20304;-70
2023/06/07 07:36:34;;;;;;;13.30;12.10;;;;;;;-141.84;57.59;21588.50;5081064;28;20296;-70
2023/06/07 07:39:05;;;;;;;12.55;11.45;;;;;;;-141.84;58.43;21549.84;5080000;28;20196;-66
2023/06/07 07:41:33;;;;;;;13.48;12.13;;;;;;;-141.84;60.06;21480.72;5083805;28;20467;-66
2023/06/07 07:44:02;;;;;;;12.57;11.45;;;;;;;-141.84;59.85;21468.53;5090709;28;20556;-66
2023/06/07 07:46:31;;;;;;;13.73;12.43;;;;;;;-141.84;61.03;21454.28;5078331;28;20209;-75
2023/06/07 07:49:00;;;;;;;11.65;10.50;;;;;;;-141.84;61.19;21429.91;5084246;28;20313;-70
2023/06/07 07:51:28;;;;;;;12.05;11.00;;;;;;;-141.84;61.38;21433.97;5090581;28;20185;-70
2023/06/07 07:53:57;;;;;;;10.75;9.95;;;;;;;-141.84;61.55;21436.00;5090390;28;20319;-71
2023/06/07 07:56:27;;;;;;;13.10;11.80;;;;;;;-141.84;62.12;21436.00;5090423;28;20222;-67
2023/06/07 07:58:55;;;;;;;12.20;11.20;;;;;;;-141.84;60.09;21446.16;5090748;28;20257;-73
2023/06/07 08:01:24;;;;;;;12.10;11.10;;;;;;;-141.84;60.97;21442.09;5089815;28;20675;-70
2023/06/07 08:03:52;;;;;;;12.90;11.65;;;;;;;-141.84;61.97;21391.28;5089300;28;20232;-71
2023/06/07 08:06:21;;;;;;;11.93;10.82;;;;;;;-141.84;62.86;21354.66;5090449;28;20258;-72
2023/06/07 08:08:50;;;;;;;11.85;10.77;;;;;;;-141.84;62.51;21379.06;5089658;28;20763;-72
2023/06/07 08:11:20;;;;;;;12.80;11.60;;;;;;;-141.84;60.50;21399.41;5090216;28;20200;-77
2023/06/07 08:13:50;;;;;;;12.02;11.02;;;;;;;-141.84;61.95;21342.47;5090400;28;20596;-75
2023/06/07 08:16:19;;;;;;;12.82;11.73;;;;;;;-141.84;63.00;21358.75;5076917;28;20296;-74
2023/06/07 08:18:55;;;;;;;12.30;10.32;;;;;;;-141.84;62.89;21354.66;5070276;28;20255;-76
2023/06/07 08:21:24;;;;;;;12.90;11.80;;;;;;;-141.84;62.25;21340.44;5070006;28;20191;-75
2023/06/07 08:23:55;;;;;;;13.02;11.82;;;;;;;-141.84;62.51;21340.44;5083953;28;20384;-73
2023/06/07 08:26:24;;;;;;;12.15;11.05;;;;;;;-141.84;62.79;21303.84;5090512;28;20596;-72
2023/06/07 08:28:54;;;;;;;12.82;11.70;;;;;;;-141.84;61.24;21283.50;5090310;28;20291;-71
2023/06/07 08:31:27;;;;;;;10.57;9.73;;;;;;;-141.84;61.68;21311.97;5090366;28;20237;-73
2023/06/07 08:33:56;;;;;;;10.73;9.43;;;;;;;-141.84;62.28;21301.81;5090458;28;20215;-71
2023/06/07 08:36:24;;;;;;;11.23;9.70;;;;;;;-141.84;61.37;21358.75;5079806;28;20262;-71
2023/06/07 08:38:53;;;;;;;11.00;9.93;;;;;;;-141.84;60.92;21385.16;5070090;28;20296;-71
2023/06/07 08:41:21;;;;;;;10.70;9.70;;;;;;;-141.84;60.99;21417.69;5070240;28;20304;-70
2023/06/07 08:43:50;;;;;;;11.98;10.80;;;;;;;-141.84;59.07;21517.31;5071812;28;20192;-72
2023/06/07 08:46:23;;;;;;;12.02;11.02;;;;;;;-141.84;56.87;21547.81;5072346;28;20283;-69
2023/06/07 08:48:53;;;;;;;10.20;9.30;;;;;;;-141.84;56.18;21584.44;5084989;28;20192;-72
2023/06/07 08:51:22;;;;;;;9.77;8.98;;;;;;;-141.84;54.71;21663.72;5091938;28;20258;-71
2023/06/07 08:53:55;;;;;;;8.88;8.07;;;;;;;-141.84;54.08;21710.50;5093383;28;20215;-71
2023/06/07 08:56:25;;;;;;;9.82;8.90;;;;;;;-141.84;54.09;21722.69;5093405;28;20203;-71
2023/06/07 08:58:55;;;;;;;8.80;8.00;;;;;;;-141.84;54.07;21828.44;5093049;28;20633;-69
2023/06/07 09:01:27;;;;;;;9.82;8.93;;;;;;;-141.84;53.13;21921.97;5092999;28;20235;-69
2023/06/07 09:03:59;;;;;;;10.15;9.15;;;;;;;-141.84;51.16;21993.13;5077409;28;20196;-68
2023/06/07 09:06:28;;;;;;;8.90;8.20;;;;;;;-141.84;50.97;22011.44;5092947;28;20219;-69
2023/06/07 09:08:57;;;;;;;9.80;8.80;;;;;;;-141.84;50.27;22017.53;5085255;28;20230;-70
2023/06/07 09:11:26;;;;;;;9.98;8.07;;;;;;;-141.84;50.31;22005.34;5085916;28;20344;-68
2023/06/07 09:13:57;;;;;;;8.32;7.63;;;;;;;-141.84;50.09;22013.47;5050515;28;20196;-68
2023/06/07 09:16:27;;;;;;;8.25;7.45;;;;;;;-141.84;49.33;22025.66;5074924;28;20629;-69
2023/06/07 09:18:56;;;;;;;9.73;8.75;;;;;;;-141.84;49.43;21978.91;5092209;28;20275;-69
2023/06/07 09:21:26;;;;;;;8.48;7.68;;;;;;;-141.84;49.52;22005.34;5072025;28;20204;-69
2023/06/07 09:23:59;;;;;;;8.98;8.07;;;;;;;-141.84;50.07;21950.44;5089299;28;20764;-69
2023/06/07 09:26:37;;;;;;;8.75;8.05;;;;;;;-141.84;49.01;21938.22;5092728;28;20184;-70
2023/06/07 09:29:08;;;;;;;7.72;7.13;;;;;;;-141.84;48.66;21974.84;5092810;28;20192;-68
2023/06/07 09:31:38;;;;;;;10.23;9.15;;;;;;;-141.84;50.31;21928.06;5092057;28;20208;-69
2023/06/07 09:34:21;;;;;;;9.75;8.23;;;;;;;-141.84;50.56;21873.16;5090658;28;20184;-70
2023/06/07 09:36:52;;;;;;;8.93;8.05;;;;;;;-141.84;51.07;21812.16;5041549;28;20220;-69
2023/06/07 09:39:22;;;;;;;9.75;8.65;;;;;;;-141.84;51.42;21846.72;5071170;28;20205;-69
2023/06/07 09:41:52;;;;;;;9.82;8.98;;;;;;;-141.84;51.31;21820.28;5071318;28;20185;-69
2023/06/07 09:44:25;;;;;;;10.15;8.93;;;;;;;-141.84;51.52;21842.66;5071081;28;20254;-69
2023/06/07 09:46:55;;;;;;;7.82;7.13;;;;;;;-141.84;51.04;21863.00;5071092;28;20185;-69
2023/06/07 09:49:28;;;;;;;7.57;6.95;;;;;;;-141.84;48.36;21909.75;5088285;28;20234;-69
2023/06/07 09:51:57;;;;;;;7.40;6.70;;;;;;;-141.84;48.71;21952.47;5091406;28;20202;-70
2023/06/07 09:54:37;;;;;;;8.07;7.43;;;;;;;-141.84;48.78;21968.72;5091047;28;20223;-69
2023/06/07 09:57:08;;;;;;;8.93;8.13;;;;;;;-141.84;49.29;21995.16;5090954;28;20208;-69
2023/06/07 09:59:37;;;;;;;8.60;7.82;;;;;;;-141.84;49.27;21974.84;5090404;28;20192;-69
2023/06/07 10:02:25;;;;;;;10.02;8.65;;;;;;;-141.84;48.86;21989.06;5087526;28;20200;-69
2023/06/07 10:04:56;;;;;;;10.20;9.25;;;;;;;-141.84;49.93;21936.19;5087490;28;20295;-69
2023/06/07 10:07:32;;;;;;;9.80;9.00;;;;;;;-141.84;50.24;21964.66;5090793;28;20192;-70
2023/06/07 10:10:03;;;;;;;9.48;8.60;;;;;;;-141.84;49.76;22017.53;5090967;28;20181;-69
2023/06/07 10:12:38;;;;;;;9.73;8.90;;;;;;;-141.84;48.10;22082.63;5056873;28;20208;-72
2023/06/07 10:15:10;;;;;;;9.40;8.50;;;;;;;-141.84;48.20;22074.47;5090415;28;20262;-70
2023/06/07 10:17:55;;;;;;;9.30;8.40;;;;;;;-141.84;48.06;22072.44;5090968;28;20207;-70
2023/06/07 10:20:27;;;;;;;8.93;8.13;;;;;;;-141.84;48.79;22104.97;5090871;28;20283;-70
2023/06/07 10:23:01;;;;;;;9.90;9.10;;;;;;;-141.84;46.53;22180.22;5090877;28;20610;-70
2023/06/07 10:25:35;;;;;;;9.40;8.55;;;;;;;-141.84;46.13;22261.56;5090609;28;20180;-70
2023/06/07 10:28:13;;;;;;;9.68;8.77;;;;;;;-141.84;45.19;22318.50;5090796;28;20215;-70
2023/06/07 10:30:47;;;;;;;9.32;8.52;;;;;;;-141.84;45.81;22338.84;5090329;28;20184;-69
2023/06/07 10:33:18;;;;;;;10.38;9.38;;;;;;;-141.84;44.56;22391.72;5070331;28;20205;-70
2023/06/07 10:35:48;;;;;;;9.73;8.80;;;;;;;-141.84;45.22;22405.97;5072941;28;20608;-70
2023/06/07 10:38:16;;;;;;;9.00;8.30;;;;;;;-141.84;45.16;22475.09;5083024;28;20207;-70
2023/06/07 10:40:45;;;;;;;9.88;8.95;;;;;;;-141.84;44.79;22487.31;5073385;28;20668;-69
2023/06/07 10:43:14;;;;;;;8.77;7.97;;;;;;;-141.84;45.20;22513.75;5089782;28;20238;-69
2023/06/07 10:45:43;;;;;;;9.32;8.48;;;;;;;-141.84;44.66;22578.81;5091305;28;20329;-69
2023/06/07 10:48:35;;;;;;;10.38;9.15;;;;;;;-141.84;44.38;22660.19;5082507;28;20208;-69
2023/06/07 10:51:05;;;;;;;8.93;8.20;;;;;;;-141.84;44.64;22623.56;5092137;28;20740;-71
2023/06/07 10:53:50;;;;;;;9.43;8.50;;;;;;;-141.84;44.19;22621.53;5091992;28;20465;-70
2023/06/07 10:56:37;;;;;;;8.55;7.85;;;;;;;-141.84;42.43;22603.22;5078143;28;20212;-69
2023/06/07 10:59:22;;;;;;;8.38;7.68;;;;;;;-141.84;43.38;22631.72;5109476;28;20199;-70
2023/06/07 11:01:54;;;;;;;8.98;8.13;;;;;;;-141.84;43.38;22706.97;5084482;28;20201;-68
2023/06/07 11:04:59;;;;;;;9.07;8.32;;;;;;;-141.84;43.38;22698.81;5076529;28;20193;-70
2023/06/07 11:07:31;;;;;;;9.57;8.68;;;;;;;-141.84;43.31;22733.41;5078024;28;20212;-71
2023/06/07 11:10:33;;;;;;;9.68;8.85;;;;;;;-141.84;43.73;22698.81;5077288;28;20181;-68
2023/06/07 11:13:03;;;;;;;9.65;8.77;;;;;;;-141.84;42.41;22751.69;5075426;28;20588;-69
2023/06/07 11:15:35;;;;;;;9.57;8.77;;;;;;;-141.84;42.44;22727.28;5074801;28;20255;-70
2023/06/07 11:18:07;;;;;;;9.23;8.23;;;;;;;-141.84;42.32;22747.63;5081778;28;20181;-69